Mountain Home Village, California
Current Conditions -  °F | °C
As of 11:35 AM on Saturday 20 Dec 2014 (Local Time) from KL35 Reporting Station
Clear Clear  
Wind Chill: 35°   Ceiling: Unl
Heat Index: 41°   Visibility: 10mi
Dew Point: 32°   Wind: 10mph
Humidity: 70%   Direction: 230°SW
Pressure: 30.2"   Gusts: 17mph
Location:  34.1048°N, 117.051°W
Report Text: KL35 201935Z AUTO 23009G15KT 194V264 10SM CLR 05/00 A3020 RMK AO2
Loading
Personal Weather Stations






























Interactive Weather Map New forecast layout! Learn more

10-Day Weather Forecast

Advertisements
Track Severe Weather on mobile